茨城空港(百里飛行場)の過去48時間の天気

茨城空港(百里飛行場) (Hyakuri)

現在時刻: 1/23 14:48 JST (1/23 05:48 UTC) 以下の時間は現地時間です。

過去48時間のMETAR気象情報
時間 風向 風速(m/s) 視程 気温(℃) 湿度(%) 気圧(hPa) 天気現象
23 14:00 西 3 10km以上 6 70 1000
23 13:00 西 3 10km以上 5 70 1000
23 12:00 不定 1 10km以上 4 65 1001
23 11:00 不定 1 10km以上 2 81 1003
23 10:00 南南西 3 10km以上 0 100 1005
23 09:00 南南西 2 10km以上 -1 100 1006 地霧
23 08:43 2 10km以上 -2 100 1006 地霧
23 08:27 2 10km以上 -1 93 1006 地霧
23 08:00 2 10km以上 -1 93 1006 地霧 部分霧
23 07:46 2 10km以上 -2 100 1006 地霧 部分霧
23 07:35 南南西 2 10km以上 -3 100 1007 地霧 部分霧
23 07:00 西南西 1 10km以上 -4 100 1006 部分霧 地霧
23 06:00 西 2 10km以上 -3 93 1006 地霧
23 05:22 南西 2 10km以上 -2 100 1006
23 05:00 西南西 3 10km以上 -2 100 1006
23 04:00 西 2 10km以上 0 86 1006
23 03:43 西 2 10km以上 0 93 1005
23 03:00 北北西 3 10km以上 0 93 1005 弱い雪
23 02:00 北北西 5 10km以上 0 86 1005 弱い雪
23 01:00 8 10km以上 0 86 1005 弱い雪
23 00:00 7 10km以上 0 86 1005 弱い雪
22 23:49 7 10km以上 0 86 1005 弱い雪
22 23:22 8 5,000m 0 93 1005 弱い雪 もや
22 23:00 北北西 10 1,800m 0 93 1006 弱い雪 もや
22 22:51 9 1,800m -1 100 1005 弱い雪 もや
22 22:33 北北西 10 800m 0 93 1006
22 22:00 8 500m 0 93 1007
22 21:00 9 200m -1 100 1008
22 20:20 9 200m -1 100 1008
22 20:00 北北西 8 300m -1 100 1009
22 19:45 北北東 9 300m -1 100 1008
22 19:00 6 600m 0 93 1010
22 18:00 8 600m -1 100 1012
22 17:46 8 600m -1 100 1012
22 17:00 7 400m 0 93 1013
22 16:16 8 400m 0 93 1013
22 16:00 8 800m 0 100 1014
22 15:16 北北東 8 800m 0 100 1014
22 15:00 北東 8 800m 0 100 1015
22 14:47 北東 8 800m 0 100 1015
22 14:37 北東 8 1,200m 0 100 1015 弱い雪
22 14:21 北東 9 1,400m 0 100 1015 弱い雪
22 14:00 北東 8 1,000m 0 100 1016 弱い雪
22 13:52 北東 8 1,000m 0 100 1016 弱い雪
22 13:46 北東 8 1,200m 0 100 1016 弱い雪
22 13:31 北東 7 1,600m 1 93 1017 弱い雪
22 13:27 北東 7 1,800m 1 93 1017 弱い雪
22 13:00 北東 7 1,000m 1 93 1017 弱い雪
22 12:33 北東 8 900m 1 93 1017
22 12:21 北東 8 1,200m 1 93 1017 弱い雪 もや
22 12:00 北東 7 3,000m 2 81 1018 弱い雪 もや
22 11:07 北東 8 6,000m 3 75 1019 弱い雨 弱い雪
22 11:00 北北東 7 8,000m 3 70 1019 弱い雨 弱い雪
22 10:38 北東 7 10km以上 4 56 1020 弱い雪 弱い雨
22 10:04 北東 7 10km以上 3 56 1020 弱い雪
22 09:00 北北東 6 10km以上 2 55 1021
22 08:39 北北東 5 10km以上 2 55 1020
22 08:22 4 10km以上 1 60 1020 弱い雨
22 08:00 4 10km以上 0 64 1021
22 07:00 北北東 3 10km以上 -2 74 1020
22 06:00 2 10km以上 -2 69 1020
22 05:00 北北東 3 10km以上 -2 74 1019
RJAH 230500Z 28006KT 250V310 9999 FEW020 06/01 Q1000
RJAH 230400Z 28005KT 230V290 9999 FEW020 05/00 Q1000
RJAH 230300Z VRB01KT 9999 FEW020 04/M02 Q1001
RJAH 230200Z VRB02KT 9999 FEW025 02/M01 Q1003
RJAH 230100Z 21005KT 9999 FEW030 00/M00 Q1005
RJAH 230000Z 20003KT 150V230 9999 MIFG FEW001 M01/M01 Q1006
RJAH 222343Z 19003KT 9999 R21/1000N MIFG FEW001 M02/M02 Q1006 RMK 1ST001 A2972 VIS W-NW 1400M
RJAH 222327Z 18003KT 9999 R21/0200V1600D MIFG FEW001 M01/M02 Q1006 RMK 1ST001 A2972 R0350 VIS SW-NW 1200M
RJAH 222300Z 18004KT 9999 R03/1000VP1800U PRFG MIFG FEW001 M01/M02 Q1006
RJAH 222246Z 18004KT 9999 R03/0350V1100D PRFG MIFG FEW000 M02/M02 Q1006 RMK 1ST000 A2973 R0550 FG BANK 800M SW-NW
RJAH 222235Z 20003KT 9999 R03/0800VP1800D PRFG MIFG FEW030 M03/M03 Q1007 RMK 1SC030 A2974 R1500 FG BANK SW-NW 1000M
RJAH 222200Z 25002KT 9999 PRFG MIFG FEW030 M04/M04 Q1006
RJAH 222100Z 27003KT 230V300 9999 MIFG FEW030 SCT070 M03/M04 Q1006
RJAH 222022Z 22004KT 9999 FEW030 SCT070 M02/M02 Q1006 RMK 2SC030 3AC070 A2972
RJAH 222000Z 24005KT 9999 SCT030 BKN070 M02/M02 Q1006
RJAH 221900Z 26004KT 210V290 9999 SCT040 BKN070 M00/M02 Q1006
RJAH 221843Z 28004KT 250V330 9999 SCT040 BKN070 M00/M01 Q1005 RMK 3SC040 7AC070 A2970
RJAH 221800Z 33005KT 9999 -SN FEW020 BKN040 OVC070 M00/M01 Q1005
RJAH 221700Z 33009KT 9999 -SN FEW020 BKN040 OVC070 00/M02 Q1005
RJAH 221600Z 35015KT 9999 -SN SCT020 BKN040 OVC060 00/M02 Q1005
RJAH 221500Z 35014KT 9999 -SN SCT008 BKN020 OVC040 00/M02 Q1005
RJAH 221449Z 35014KT 9999 -SN SCT008 BKN020 OVC040 00/M02 Q1005 RMK 3ST008 6SC020 8SC040 A2970 MAX WIND 19KT
RJAH 221422Z 35015KT 5000 -SN BR FEW005 SCT008 OVC015 M00/M01 Q1005 RMK 1ST005 4ST008 8SC015 A2970 MAX WIND 21KT VIS S-W 8KM
RJAH 221400Z 34020G33KT 1800 -SN BR FEW004 BKN006 OVC015 M00/M01 Q1006
RJAH 221351Z 01017KT 1800 -SN BR FEW004 BKN006 OVC015 M01/M01 Q1005 RMK 1ST004 6ST006 8SC015 A2969 MAX WIND 24KT VIS SW-W 2500M
RJAH 221333Z 33020KT 0800 R03/1800U SN FEW002 BKN004 OVC012 M00/M01 Q1006 RMK 1ST002 6ST004 8SC012 A2972 MAX WIND 28KT VIS SW-W 1400M
RJAH 221300Z 01016KT 0500 R03/1200U SN VV002 M00/M01 Q1007
RJAH 221200Z 36017KT 0200 R03/0900V1100U SN VV002 M01/M01 Q1008
RJAH 221120Z 35017KT 0200 R03/0700V1000D SN VV002 M01/M01 Q1008 RMK A2979 R0900 MAX WIND 24KT
RJAH 221100Z 33016KT 0300 R03/0900V1200U SN VV002 M01/M01 Q1009
RJAH 221045Z 03017KT 0300 R03/0900V1600D SN VV003 M01/M01 Q1008 RMK A2977 R1200
RJAH 221000Z 01012KT 0600 R03/P1800N SN SCT002 BKN003 OVC005 M00/M01 Q1010
RJAH 220900Z 35015KT 0600 R03/P1800N SN SCT002 BKN003 OVC005 M01/M01 Q1012
RJAH 220846Z 35015KT 0600 R03/P1800N SN SCT002 BKN003 OVC005 M01/M01 Q1012 RMK 3ST002 6ST003 8ST005 A2989 MAX WIND 20KT VIS SW-W 800M
RJAH 220800Z 35013KT 0400 R03/P1800U SN VV003 M00/M01 Q1013
RJAH 220716Z 01016KT 0400 R03/1300VP1800D SN VV003 M00/M01 Q1013 RMK A2992 R1400 MAX WIND 22KT
RJAH 220700Z 01015KT 0800 R03/P1800N SN FEW002 BKN003 OVC006 00/M00 Q1014
RJAH 220616Z 03015KT 0800 R03/P1800U SN FEW002 BKN003 OVC006 00/M00 Q1014 RMK 2ST002 6ST003 8ST006 A2997 MAX WIND 20KT VIS NW-NE 600M
RJAH 220600Z 04015KT 0800 R03/1800D SN FEW002 BKN004 OVC008 00/M00 Q1015
RJAH 220547Z 04015KT 0800 R03/P1800N SN FEW002 BKN004 OVC008 00/M00 Q1015 RMK 2ST002 6ST004 8ST008 A2998 MAX WIND 21KT VIS NW-NE 600M
RJAH 220537Z 04016KT 1200 R03/P1800N -SN FEW002 BKN004 OVC008 00/M00 Q1015 RMK 1ST002 6ST004 8ST008 A2998 MAX WIND 24KT VIS NW-N 1000M
RJAH 220521Z 04017G27KT 1400 R03/P1800N -SN FEW002 BKN004 OVC008 00/M00 Q1015 RMK 1ST002 5ST004 8ST008 A2999 VIS E 1200M SW-W 2000M
RJAH 220500Z 04015G25KT 1000 R03/P1800N -SN FEW002 BKN004 OVC008 00/M00 Q1016
RJAH 220452Z 04015G25KT 1000 R03/P1800N -SN FEW002 BKN004 OVC008 00/M00 Q1016 RMK 2ST002 6ST004 8ST008 A3002 VIS W-N 800M
RJAH 220446Z 04015KT 1200 R03/P1800N -SN FEW003 BKN005 OVC010 00/M00 Q1016 RMK 2ST003 6ST005 8ST010 A3002 MAX WIND 19KT VIS W-N 1000M
RJAH 220431Z 04014KT 1600 -SN FEW003 BKN006 OVC010 01/M00 Q1017 RMK 2ST003 6ST006 8ST010 A3003 MAX WIND 21KT VIS W-N 1200M
RJAH 220427Z 04013KT 1800 -SN FEW004 BKN006 OVC010 01/M00 Q1017 RMK 2ST004 6ST006 8ST010 A3003 MAX WIND 20KT VIS W-N 1600M
RJAH 220400Z 05013KT 1000 R03/P1800N -SN FEW004 BKN006 OVC010 01/M00 Q1017
RJAH 220333Z 05015KT 0900 R03/P1800N SN FEW005 BKN006 OVC010 01/M00 Q1017 RMK 2ST005 6ST006 8ST010 A3004 MAX WIND 22KT VIS S-W 600M FCST AMD 0309 BECMG 0303 1500 -SN TEMPO 0309 1000 -SN SCT002ST BKN003ST
RJAH 220321Z 05015KT 1200 R03/P1800N -SN BR FEW005 BKN006 OVC010 01/M00 Q1017 RMK 2ST005 6ST006 8ST010 A3005 MAX WIND 22KT VIS S-W 1000M
RJAH 220300Z 04013KT 3000 -SN BR FEW008 BKN012 OVC020 02/M01 Q1018
RJAH 220207Z 04015KT 6000 -RASN FEW008 OVC020 03/M01 Q1019 RMK 2ST008 8SC020 A3011 MAX WIND 23KT VIS W-NW 4000M
RJAH 220200Z 03014KT 8000 -RASN FEW010 OVC025 03/M02 Q1019
RJAH 220138Z 04014KT 9999 -SNRA FEW010 OVC025 04/M04 Q1020 RMK 1ST010 8SC025 A3013 MAX WIND 23KT
RJAH 220104Z 04014KT 9999 -SN FEW020 BKN030 03/M05 Q1020 RMK 1SC020 7SC030 A3014 MAX WIND 20KT
RJAH 220000Z 03011KT 9999 FEW020 BKN030 BKN150 02/M06 Q1021
RJAH 212339Z 02009KT 9999 FEW005 BKN030 BKN150 02/M06 Q1020 RMK 1ST005 6SC030 7AC150 A3015
RJAH 212322Z 01008KT 9999 -RA FEW005 BKN030 BKN150 01/M06 Q1020 RMK 1ST005 6SC030 7AC150 A3014
RJAH 212300Z 36007KT 9999 FEW005 BKN040 BKN160 00/M06 Q1021
RJAH 212200Z 02005KT 9999 FEW002 BKN040 BKN160 M02/M06 Q1020
RJAH 212100Z 01004KT 9999 FEW015 BKN040 BKN160 M02/M07 Q1020
RJAH 212000Z 02006KT 9999 FEW015 BKN160 M02/M06 Q1019